Terminal Aerodrome Forecast
Issued by NWS

Home | Current Version | Previous Version | Text Only | Print | Product List | Glossary On
Versions: 1 2 3 4 5 6 7 8 9 10 11 12 13 14 15 16 17 18 19 20 21 22
902
FTUS46 KMTR 302338
TAFSFO
TAF
KSFO 302338Z 3100/0106 28015G22KT P6SM FEW008 FEW040
     FM310400 28010KT P6SM FEW008 FEW040
     FM311100 26005KT P6SM BKN008
     FM311500 23004KT P6SM BKN008
     FM311700 04004KT P6SM FEW009 SCT050
     FM311900 32010KT P6SM FEW009 SCT050
     FM312100 27015KT P6SM FEW009 SCT050
     FM010400 28010KT P6SM FEW008=

USA.gov is the U.S. government's official web portal to all federal, state and local government web resources and services.